sensor_id;sensor_type;location;lat;lon;timestamp;pressure;altitude;pressure_sealevel;temperature;humidity
18813;BME280;9534;51.140;6.296;2023-05-14T00:03:41;100833.91;;;11.21;100.00
18813;BME280;9534;51.140;6.296;2023-05-14T00:07:44;100835.19;;;11.12;100.00
18813;BME280;9534;51.140;6.296;2023-05-14T00:11:48;100831.38;;;11.07;100.00
18813;BME280;9534;51.140;6.296;2023-05-14T00:15:51;100832.66;;;11.17;100.00
18813;BME280;9534;51.140;6.296;2023-05-14T00:19:54;100825.94;;;11.13;100.00
18813;BME280;9534;51.140;6.296;2023-05-14T00:23:57;100825.06;;;11.07;100.00
18813;BME280;9534;51.140;6.296;2023-05-14T00:28:01;100818.28;;;10.83;100.00
18813;BME280;9534;51.140;6.296;2023-05-14T00:32:05;100828.34;;;10.70;100.00
18813;BME280;9534;51.140;6.296;2023-05-14T00:36:08;100813.19;;;10.61;100.00
18813;BME280;9534;51.140;6.296;2023-05-14T00:40:11;100819.88;;;10.52;100.00
18813;BME280;9534;51.140;6.296;2023-05-14T00:44:16;100814.44;;;10.58;100.00
18813;BME280;9534;51.140;6.296;2023-05-14T00:48:19;100817.78;;;10.47;100.00
18813;BME280;9534;51.140;6.296;2023-05-14T00:52:22;100809.56;;;10.54;100.00
18813;BME280;9534;51.140;6.296;2023-05-14T00:56:25;100807.28;;;10.57;100.00
18813;BME280;9534;51.140;6.296;2023-05-14T01:00:31;100804.31;;;10.52;100.00
18813;BME280;9534;51.140;6.296;2023-05-14T01:04:34;100802.19;;;10.48;100.00
18813;BME280;9534;51.140;6.296;2023-05-14T01:08:39;100802.59;;;10.38;100.00
18813;BME280;9534;51.140;6.296;2023-05-14T01:12:46;100802.59;;;10.45;100.00
18813;BME280;9534;51.140;6.296;2023-05-14T01:16:54;100806.59;;;10.42;100.00
18813;BME280;9534;51.140;6.296;2023-05-14T01:20:59;100800.50;;;10.47;100.00
18813;BME280;9534;51.140;6.296;2023-05-14T01:25:05;100796.25;;;10.38;100.00
18813;BME280;9534;51.140;6.296;2023-05-14T01:29:10;100791.00;;;10.30;100.00
18813;BME280;9534;51.140;6.296;2023-05-14T01:33:15;100795.53;;;10.10;100.00
18813;BME280;9534;51.140;6.296;2023-05-14T01:37:19;100796.50;;;10.02;100.00
18813;BME280;9534;51.140;6.296;2023-05-14T01:41:24;100820.16;;;9.83;100.00
18813;BME280;9534;51.140;6.296;2023-05-14T01:45:28;100800.91;;;9.97;100.00
18813;BME280;9534;51.140;6.296;2023-05-14T01:49:31;100802.84;;;10.09;100.00
18813;BME280;9534;51.140;6.296;2023-05-14T01:53:34;100812.00;;;9.89;100.00
18813;BME280;9534;51.140;6.296;2023-05-14T01:57:38;100797.66;;;9.81;100.00
18813;BME280;9534;51.140;6.296;2023-05-14T02:01:42;100800.16;;;9.82;100.00
18813;BME280;9534;51.140;6.296;2023-05-14T02:05:45;100795.50;;;9.76;100.00
18813;BME280;9534;51.140;6.296;2023-05-14T02:09:48;100793.88;;;9.82;100.00
18813;BME280;9534;51.140;6.296;2023-05-14T02:13:52;100787.16;;;9.84;100.00
18813;BME280;9534;51.140;6.296;2023-05-14T02:17:55;100781.59;;;9.71;100.00
18813;BME280;9534;51.140;6.296;2023-05-14T02:21:58;100777.81;;;9.72;100.00
18813;BME280;9534;51.140;6.296;2023-05-14T02:26:01;100782.25;;;9.39;100.00
18813;BME280;9534;51.140;6.296;2023-05-14T02:30:06;100775.81;;;9.26;100.00
18813;BME280;9534;51.140;6.296;2023-05-14T02:34:10;100772.03;;;9.20;100.00
18813;BME280;9534;51.140;6.296;2023-05-14T02:38:12;100761.91;;;9.21;100.00
18813;BME280;9534;51.140;6.296;2023-05-14T02:42:15;100759.66;;;9.24;100.00
18813;BME280;9534;51.140;6.296;2023-05-14T02:46:20;100757.31;;;9.21;100.00
18813;BME280;9534;51.140;6.296;2023-05-14T02:50:24;100760.22;;;9.20;100.00
18813;BME280;9534;51.140;6.296;2023-05-14T02:54:27;100761.78;;;9.29;100.00
18813;BME280;9534;51.140;6.296;2023-05-14T02:58:30;100786.09;;;9.51;100.00
18813;BME280;9534;51.140;6.296;2023-05-14T03:02:34;100768.84;;;9.44;100.00
18813;BME280;9534;51.140;6.296;2023-05-14T03:06:38;100775.34;;;9.43;100.00
18813;BME280;9534;51.140;6.296;2023-05-14T03:10:41;100768.84;;;9.44;100.00
18813;BME280;9534;51.140;6.296;2023-05-14T03:14:44;100759.97;;;9.15;100.00
18813;BME280;9534;51.140;6.296;2023-05-14T03:18:48;100773.19;;;9.11;100.00
18813;BME280;9534;51.140;6.296;2023-05-14T03:22:51;100771.94;;;9.14;100.00
18813;BME280;9534;51.140;6.296;2023-05-14T03:26:55;100769.81;;;9.09;100.00
18813;BME280;9534;51.140;6.296;2023-05-14T03:30:57;100764.25;;;8.96;100.00
18813;BME280;9534;51.140;6.296;2023-05-14T03:35:02;100763.84;;;8.99;100.00
18813;BME280;9534;51.140;6.296;2023-05-14T03:39:06;100761.66;;;8.88;100.00
18813;BME280;9534;51.140;6.296;2023-05-14T03:43:10;100756.28;;;8.95;100.00
18813;BME280;9534;51.140;6.296;2023-05-14T03:47:13;100761.13;;;8.99;100.00
18813;BME280;9534;51.140;6.296;2023-05-14T03:51:17;100762.13;;;8.92;100.00
18813;BME280;9534;51.140;6.296;2023-05-14T03:55:20;100753.84;;;8.85;100.00
18813;BME280;9534;51.140;6.296;2023-05-14T03:59:23;100756.19;;;8.88;100.00
18813;BME280;9534;51.140;6.296;2023-05-14T04:03:27;100761.47;;;8.90;100.00
18813;BME280;9534;51.140;6.296;2023-05-14T04:07:32;100754.22;;;8.76;100.00
18813;BME280;9534;51.140;6.296;2023-05-14T04:11:35;100755.16;;;8.68;100.00
18813;BME280;9534;51.140;6.296;2023-05-14T04:15:38;100749.06;;;8.66;100.00
18813;BME280;9534;51.140;6.296;2023-05-14T04:19:41;100749.44;;;8.63;100.00
18813;BME280;9534;51.140;6.296;2023-05-14T04:23:45;100751.78;;;8.66;100.00
18813;BME280;9534;51.140;6.296;2023-05-14T04:27:48;100745.44;;;8.60;100.00
18813;BME280;9534;51.140;6.296;2023-05-14T04:31:51;100748.41;;;8.64;100.00
18813;BME280;9534;51.140;6.296;2023-05-14T04:35:55;100749.78;;;8.75;100.00
18813;BME280;9534;51.140;6.296;2023-05-14T04:39:59;100751.59;;;8.68;100.00
18813;BME280;9534;51.140;6.296;2023-05-14T04:44:02;100750.19;;;8.72;100.00
18813;BME280;9534;51.140;6.296;2023-05-14T04:48:05;100757.09;;;8.95;100.00
18813;BME280;9534;51.140;6.296;2023-05-14T04:52:09;100750.72;;;9.09;100.00
18813;BME280;9534;51.140;6.296;2023-05-14T04:56:13;100750.72;;;9.09;100.00
18813;BME280;9534;51.140;6.296;2023-05-14T05:00:16;100753.66;;;9.35;100.00
18813;BME280;9534;51.140;6.296;2023-05-14T05:04:19;100763.78;;;9.41;100.00
18813;BME280;9534;51.140;6.296;2023-05-14T05:08:24;100759.66;;;9.58;100.00
18813;BME280;9534;51.140;6.296;2023-05-14T05:12:29;100762.53;;;9.44;100.00
18813;BME280;9534;51.140;6.296;2023-05-14T05:16:32;100761.75;;;9.56;100.00
18813;BME280;9534;51.140;6.296;2023-05-14T05:20:35;100761.34;;;9.59;100.00
18813;BME280;9534;51.140;6.296;2023-05-14T05:24:38;100757.56;;;9.60;100.00
18813;BME280;9534;51.140;6.296;2023-05-14T05:28:42;100761.44;;;9.72;100.00
18813;BME280;9534;51.140;6.296;2023-05-14T05:32:45;100764.91;;;9.93;100.00
18813;BME280;9534;51.140;6.296;2023-05-14T05:36:48;100768.31;;;10.02;100.00
18813;BME280;9534;51.140;6.296;2023-05-14T05:40:51;100762.09;;;10.14;100.00
18813;BME280;9534;51.140;6.296;2023-05-14T05:44:55;100762.16;;;10.34;100.00
18813;BME280;9534;51.140;6.296;2023-05-14T05:48:58;100767.25;;;10.50;100.00
18813;BME280;9534;51.140;6.296;2023-05-14T05:53:01;100770.66;;;10.65;100.00
18813;BME280;9534;51.140;6.296;2023-05-14T05:57:04;100768.59;;;10.93;100.00
18813;BME280;9534;51.140;6.296;2023-05-14T06:01:10;100767.78;;;11.11;100.00
18813;BME280;9534;51.140;6.296;2023-05-14T06:05:14;100774.50;;;11.28;100.00
18813;BME280;9534;51.140;6.296;2023-05-14T06:09:17;100777.00;;;11.49;100.00
18813;BME280;9534;51.140;6.296;2023-05-14T06:13:20;100775.53;;;11.53;100.00
18813;BME280;9534;51.140;6.296;2023-05-14T06:17:24;100779.13;;;11.54;100.00
18813;BME280;9534;51.140;6.296;2023-05-14T06:21:27;100762.66;;;11.60;100.00
18813;BME280;9534;51.140;6.296;2023-05-14T06:25:30;100761.00;;;11.72;100.00
18813;BME280;9534;51.140;6.296;2023-05-14T06:29:33;100756.66;;;12.02;100.00
18813;BME280;9534;51.140;6.296;2023-05-14T06:33:37;100746.81;;;12.32;100.00
18813;BME280;9534;51.140;6.296;2023-05-14T06:37:40;100742.16;;;12.39;100.00
18813;BME280;9534;51.140;6.296;2023-05-14T06:41:43;100738.63;;;12.63;100.00
18813;BME280;9534;51.140;6.296;2023-05-14T06:45:48;100738.13;;;12.72;100.00
18813;BME280;9534;51.140;6.296;2023-05-14T06:49:53;100726.09;;;12.98;100.00
18813;BME280;9534;51.140;6.296;2023-05-14T06:53:57;100725.75;;;13.19;100.00
18813;BME280;9534;51.140;6.296;2023-05-14T06:58:00;100714.22;;;13.53;100.00
18813;BME280;9534;51.140;6.296;2023-05-14T07:02:03;100716.88;;;13.41;100.00
18813;BME280;9534;51.140;6.296;2023-05-14T07:06:07;100703.53;;;13.62;100.00
18813;BME280;9534;51.140;6.296;2023-05-14T07:10:12;100697.13;;;13.68;100.00
18813;BME280;9534;51.140;6.296;2023-05-14T07:14:15;100695.88;;;14.00;100.00
18813;BME280;9534;51.140;6.296;2023-05-14T07:18:18;100695.16;;;14.23;100.00
18813;BME280;9534;51.140;6.296;2023-05-14T07:22:23;100684.44;;;14.62;100.00
18813;BME280;9534;51.140;6.296;2023-05-14T07:26:26;100665.28;;;14.67;100.00
18813;BME280;9534;51.140;6.296;2023-05-14T07:30:29;100671.84;;;15.07;100.00
18813;BME280;9534;51.140;6.296;2023-05-14T07:34:32;100657.72;;;15.15;100.00
18813;BME280;9534;51.140;6.296;2023-05-14T07:38:36;100649.31;;;15.33;100.00
18813;BME280;9534;51.140;6.296;2023-05-14T07:42:39;100658.19;;;15.58;100.00
18813;BME280;9534;51.140;6.296;2023-05-14T07:46:42;100651.66;;;15.87;100.00
18813;BME280;9534;51.140;6.296;2023-05-14T07:50:45;100651.09;;;16.12;100.00
18813;BME280;9534;51.140;6.296;2023-05-14T07:54:50;100653.97;;;16.17;100.00
18813;BME280;9534;51.140;6.296;2023-05-14T07:58:53;100648.81;;;16.65;100.00
18813;BME280;9534;51.140;6.296;2023-05-14T08:02:56;100657.13;;;16.82;100.00
18813;BME280;9534;51.140;6.296;2023-05-14T08:06:59;100664.41;;;17.37;100.00
18813;BME280;9534;51.140;6.296;2023-05-14T08:11:04;100681.38;;;18.00;100.00
18813;BME280;9534;51.140;6.296;2023-05-14T08:15:07;100670.50;;;18.15;100.00
18813;BME280;9534;51.140;6.296;2023-05-14T08:19:11;100683.34;;;20.09;100.00
18813;BME280;9534;51.140;6.296;2023-05-14T08:23:14;100693.03;;;19.65;100.00
18813;BME280;9534;51.140;6.296;2023-05-14T08:27:18;100690.97;;;18.83;100.00
18813;BME280;9534;51.140;6.296;2023-05-14T08:31:22;100698.44;;;19.40;100.00
18813;BME280;9534;51.140;6.296;2023-05-14T08:35:25;100698.09;;;18.74;100.00
18813;BME280;9534;51.140;6.296;2023-05-14T08:39:28;100686.53;;;19.86;100.00
18813;BME280;9534;51.140;6.296;2023-05-14T08:43:34;100695.81;;;20.88;100.00
18813;BME280;9534;51.140;6.296;2023-05-14T08:47:39;100697.91;;;18.85;100.00
18813;BME280;9534;51.140;6.296;2023-05-14T08:51:42;100684.38;;;18.63;100.00
18813;BME280;9534;51.140;6.296;2023-05-14T08:55:46;100693.28;;;19.22;100.00
18813;BME280;9534;51.140;6.296;2023-05-14T08:59:50;100689.72;;;20.91;100.00
18813;BME280;9534;51.140;6.296;2023-05-14T09:03:53;100712.69;;;22.31;100.00
18813;BME280;9534;51.140;6.296;2023-05-14T09:07:56;100721.97;;;22.74;100.00
18813;BME280;9534;51.140;6.296;2023-05-14T09:11:59;100725.13;;;23.78;100.00
18813;BME280;9534;51.140;6.296;2023-05-14T09:16:04;100722.53;;;23.20;100.00
18813;BME280;9534;51.140;6.296;2023-05-14T09:20:08;100722.03;;;21.46;100.00
18813;BME280;9534;51.140;6.296;2023-05-14T09:24:17;100717.84;;;23.77;100.00
18813;BME280;9534;51.140;6.296;2023-05-14T09:28:20;100730.78;;;23.40;100.00
18813;BME280;9534;51.140;6.296;2023-05-14T09:32:26;100721.78;;;21.33;100.00
18813;BME280;9534;51.140;6.296;2023-05-14T09:36:36;100721.50;;;21.10;100.00
18813;BME280;9534;51.140;6.296;2023-05-14T09:40:40;100720.91;;;20.93;100.00
18813;BME280;9534;51.140;6.296;2023-05-14T09:44:44;100715.34;;;20.21;100.00
18813;BME280;9534;51.140;6.296;2023-05-14T09:48:49;100716.31;;;20.57;100.00
18813;BME280;9534;51.140;6.296;2023-05-14T09:52:53;100725.38;;;20.99;100.00
18813;BME280;9534;51.140;6.296;2023-05-14T09:56:57;100722.50;;;20.84;100.00
18813;BME280;9534;51.140;6.296;2023-05-14T10:01:00;100710.88;;;21.86;100.00
18813;BME280;9534;51.140;6.296;2023-05-14T10:05:05;100729.13;;;22.37;100.00
18813;BME280;9534;51.140;6.296;2023-05-14T10:09:09;100720.22;;;22.25;100.00
18813;BME280;9534;51.140;6.296;2023-05-14T10:13:14;100721.91;;;22.89;100.00
18813;BME280;9534;51.140;6.296;2023-05-14T10:17:21;100721.84;;;24.46;100.00
18813;BME280;9534;51.140;6.296;2023-05-14T10:21:29;100720.19;;;24.45;100.00
18813;BME280;9534;51.140;6.296;2023-05-14T10:25:34;100710.19;;;22.29;100.00
18813;BME280;9534;51.140;6.296;2023-05-14T10:29:38;100707.50;;;23.11;100.00
18813;BME280;9534;51.140;6.296;2023-05-14T10:33:46;100706.94;;;22.07;100.00
18813;BME280;9534;51.140;6.296;2023-05-14T10:37:52;100697.91;;;22.25;100.00
18813;BME280;9534;51.140;6.296;2023-05-14T10:41:55;100700.69;;;22.30;100.00
18813;BME280;9534;51.140;6.296;2023-05-14T10:45:59;100699.34;;;23.58;100.00
18813;BME280;9534;51.140;6.296;2023-05-14T10:50:04;100699.88;;;25.50;100.00
18813;BME280;9534;51.140;6.296;2023-05-14T10:54:10;100696.47;;;22.96;100.00
18813;BME280;9534;51.140;6.296;2023-05-14T10:58:14;100695.38;;;23.92;84.41
18813;BME280;9534;51.140;6.296;2023-05-14T11:02:18;100702.25;;;25.75;68.06
18813;BME280;9534;51.140;6.296;2023-05-14T11:06:22;100682.69;;;22.66;97.70
18813;BME280;9534;51.140;6.296;2023-05-14T11:10:29;100681.03;;;22.65;99.46
18813;BME280;9534;51.140;6.296;2023-05-14T11:14:32;100678.53;;;23.97;82.02
18813;BME280;9534;51.140;6.296;2023-05-14T11:18:35;100680.44;;;25.86;60.11
18813;BME280;9534;51.140;6.296;2023-05-14T11:22:40;100668.66;;;25.25;66.71
18813;BME280;9534;51.140;6.296;2023-05-14T11:26:45;100660.69;;;23.93;70.75
18813;BME280;9534;51.140;6.296;2023-05-14T11:30:48;100656.09;;;23.78;76.02
18813;BME280;9534;51.140;6.296;2023-05-14T11:34:51;100661.16;;;24.23;64.18
18813;BME280;9534;51.140;6.296;2023-05-14T11:38:55;100655.66;;;24.37;58.99
18813;BME280;9534;51.140;6.296;2023-05-14T11:43:00;100652.72;;;25.39;55.26
18813;BME280;9534;51.140;6.296;2023-05-14T11:47:06;100641.50;;;22.48;65.42
18813;BME280;9534;51.140;6.296;2023-05-14T11:51:09;100635.72;;;24.80;63.83
18813;BME280;9534;51.140;6.296;2023-05-14T11:55:12;100630.19;;;24.38;56.72
18813;BME280;9534;51.140;6.296;2023-05-14T11:59:17;100627.53;;;24.47;63.46
18813;BME280;9534;51.140;6.296;2023-05-14T12:03:20;100622.56;;;23.17;71.48
18813;BME280;9534;51.140;6.296;2023-05-14T12:07:27;100628.13;;;23.50;49.01
18813;BME280;9534;51.140;6.296;2023-05-14T12:11:31;100627.81;;;25.19;50.57
18813;BME280;9534;51.140;6.296;2023-05-14T12:15:35;100632.47;;;26.28;44.87
18813;BME280;9534;51.140;6.296;2023-05-14T12:19:39;100627.84;;;24.27;45.75
18813;BME280;9534;51.140;6.296;2023-05-14T12:23:43;100622.88;;;23.72;41.56
18813;BME280;9534;51.140;6.296;2023-05-14T12:27:46;100621.44;;;23.23;47.18
18813;BME280;9534;51.140;6.296;2023-05-14T12:31:51;100612.56;;;23.11;43.56
18813;BME280;9534;51.140;6.296;2023-05-14T12:35:54;100615.84;;;22.46;47.91
18813;BME280;9534;51.140;6.296;2023-05-14T12:40:14;100601.97;;;23.08;53.01
18813;BME280;9534;51.140;6.296;2023-05-14T12:44:17;100596.41;;;22.31;50.17
18813;BME280;9534;51.140;6.296;2023-05-14T12:48:24;100594.16;;;22.76;51.12
18813;BME280;9534;51.140;6.296;2023-05-14T12:52:28;100595.84;;;23.91;47.50
18813;BME280;9534;51.140;6.296;2023-05-14T12:56:40;100585.59;;;23.81;41.59
18813;BME280;9534;51.140;6.296;2023-05-14T13:00:43;100590.03;;;23.59;42.25
18813;BME280;9534;51.140;6.296;2023-05-14T13:04:47;100571.13;;;25.40;43.31
18813;BME280;9534;51.140;6.296;2023-05-14T13:08:50;100572.00;;;25.81;42.68
18813;BME280;9534;51.140;6.296;2023-05-14T13:12:54;100575.53;;;25.60;43.45
18813;BME280;9534;51.140;6.296;2023-05-14T13:16:57;100566.72;;;24.15;45.23
18813;BME280;9534;51.140;6.296;2023-05-14T13:21:02;100558.06;;;24.72;44.05
18813;BME280;9534;51.140;6.296;2023-05-14T13:25:07;100557.16;;;25.22;45.26
18813;BME280;9534;51.140;6.296;2023-05-14T13:29:11;100555.72;;;24.61;47.57
18813;BME280;9534;51.140;6.296;2023-05-14T13:33:14;100558.91;;;23.47;45.28
18813;BME280;9534;51.140;6.296;2023-05-14T13:37:18;100553.38;;;22.80;43.75
18813;BME280;9534;51.140;6.296;2023-05-14T13:41:21;100547.34;;;23.02;44.13
18813;BME280;9534;51.140;6.296;2023-05-14T13:45:24;100542.09;;;23.24;42.78
18813;BME280;9534;51.140;6.296;2023-05-14T13:49:28;100540.56;;;24.06;41.31
18813;BME280;9534;51.140;6.296;2023-05-14T13:53:32;100547.53;;;23.85;43.04
18813;BME280;9534;51.140;6.296;2023-05-14T13:57:35;100534.34;;;23.68;40.86
18813;BME280;9534;51.140;6.296;2023-05-14T14:01:40;100526.34;;;24.03;44.33
18813;BME280;9534;51.140;6.296;2023-05-14T14:05:44;100523.41;;;24.68;42.94
18813;BME280;9534;51.140;6.296;2023-05-14T14:09:49;100523.75;;;23.65;45.14
18813;BME280;9534;51.140;6.296;2023-05-14T14:13:52;100514.78;;;24.46;43.83
18813;BME280;9534;51.140;6.296;2023-05-14T14:17:56;100511.63;;;23.74;42.48
18813;BME280;9534;51.140;6.296;2023-05-14T14:21:59;100514.84;;;23.63;41.26
18813;BME280;9534;51.140;6.296;2023-05-14T14:26:04;100510.66;;;23.83;42.75
18813;BME280;9534;51.140;6.296;2023-05-14T14:30:07;100511.84;;;24.19;41.20
18813;BME280;9534;51.140;6.296;2023-05-14T14:34:16;100501.38;;;23.18;45.52
18813;BME280;9534;51.140;6.296;2023-05-14T14:38:19;100496.34;;;23.20;50.47
18813;BME280;9534;51.140;6.296;2023-05-14T14:42:23;100494.56;;;23.29;46.75
18813;BME280;9534;51.140;6.296;2023-05-14T14:46:27;100486.22;;;23.00;44.03
18813;BME280;9534;51.140;6.296;2023-05-14T14:50:30;100496.38;;;23.15;42.03
18813;BME280;9534;51.140;6.296;2023-05-14T14:54:33;100489.91;;;23.24;42.95
18813;BME280;9534;51.140;6.296;2023-05-14T14:58:38;100484.53;;;23.28;43.88
18813;BME280;9534;51.140;6.296;2023-05-14T15:02:41;100488.22;;;23.47;42.23
18813;BME280;9534;51.140;6.296;2023-05-14T15:06:46;100480.03;;;23.32;46.20
18813;BME280;9534;51.140;6.296;2023-05-14T15:10:49;100483.28;;;23.39;46.85
18813;BME280;9534;51.140;6.296;2023-05-14T15:14:53;100482.22;;;22.83;47.27
18813;BME280;9534;51.140;6.296;2023-05-14T15:18:57;100473.88;;;22.78;51.19
18813;BME280;9534;51.140;6.296;2023-05-14T15:23:00;100473.41;;;22.71;48.39
18813;BME280;9534;51.140;6.296;2023-05-14T15:27:03;100466.19;;;22.93;51.81
18813;BME280;9534;51.140;6.296;2023-05-14T15:31:08;100470.59;;;22.71;48.91
18813;BME280;9534;51.140;6.296;2023-05-14T15:35:11;100467.13;;;22.84;51.60
18813;BME280;9534;51.140;6.296;2023-05-14T15:39:14;100469.72;;;22.42;48.83
18813;BME280;9534;51.140;6.296;2023-05-14T15:43:17;100456.97;;;22.64;51.43
18813;BME280;9534;51.140;6.296;2023-05-14T15:47:23;100455.09;;;22.22;52.88
18813;BME280;9534;51.140;6.296;2023-05-14T15:51:26;100457.91;;;22.55;50.57
18813;BME280;9534;51.140;6.296;2023-05-14T15:55:29;100461.63;;;22.41;49.27
18813;BME280;9534;51.140;6.296;2023-05-14T15:59:32;100450.66;;;22.21;49.97
18813;BME280;9534;51.140;6.296;2023-05-14T16:03:37;100453.75;;;21.76;54.01
18813;BME280;9534;51.140;6.296;2023-05-14T16:07:40;100453.22;;;22.12;52.13
18813;BME280;9534;51.140;6.296;2023-05-14T16:11:44;100455.97;;;22.17;51.79
18813;BME280;9534;51.140;6.296;2023-05-14T16:15:47;100465.78;;;22.10;50.98
18813;BME280;9534;51.140;6.296;2023-05-14T16:19:52;100463.03;;;21.46;51.82
18813;BME280;9534;51.140;6.296;2023-05-14T16:23:57;100459.81;;;21.83;49.84
18813;BME280;9534;51.140;6.296;2023-05-14T16:28:00;100456.97;;;22.31;49.42
18813;BME280;9534;51.140;6.296;2023-05-14T16:32:03;100451.28;;;22.08;47.31
18813;BME280;9534;51.140;6.296;2023-05-14T16:36:08;100449.63;;;22.07;53.09
18813;BME280;9534;51.140;6.296;2023-05-14T16:40:12;100451.97;;;21.90;53.78
18813;BME280;9534;51.140;6.296;2023-05-14T16:44:16;100446.25;;;21.61;54.21
18813;BME280;9534;51.140;6.296;2023-05-14T16:48:19;100450.44;;;21.64;57.18
18813;BME280;9534;51.140;6.296;2023-05-14T16:52:26;100453.50;;;21.62;58.66
18813;BME280;9534;51.140;6.296;2023-05-14T16:56:29;100446.25;;;21.66;58.76
18813;BME280;9534;51.140;6.296;2023-05-14T17:00:33;100453.34;;;21.39;56.54
18813;BME280;9534;51.140;6.296;2023-05-14T17:04:36;100451.69;;;21.33;57.48
18813;BME280;9534;51.140;6.296;2023-05-14T17:08:44;100450.38;;;21.20;60.29
18813;BME280;9534;51.140;6.296;2023-05-14T17:12:48;100447.81;;;21.29;61.82
18813;BME280;9534;51.140;6.296;2023-05-14T17:16:53;100448.69;;;21.19;61.08
18813;BME280;9534;51.140;6.296;2023-05-14T17:20:56;100447.66;;;20.96;65.52
18813;BME280;9534;51.140;6.296;2023-05-14T17:25:01;100450.75;;;20.64;66.07
18813;BME280;9534;51.140;6.296;2023-05-14T17:29:04;100451.56;;;20.80;70.39
18813;BME280;9534;51.140;6.296;2023-05-14T17:33:08;100453.53;;;20.69;73.76
18813;BME280;9534;51.140;6.296;2023-05-14T17:37:12;100441.06;;;20.42;74.41
18813;BME280;9534;51.140;6.296;2023-05-14T17:41:17;100446.88;;;20.25;79.93
18813;BME280;9534;51.140;6.296;2023-05-14T17:45:20;100451.00;;;20.08;84.67
18813;BME280;9534;51.140;6.296;2023-05-14T17:49:23;100451.84;;;19.93;87.40
18813;BME280;9534;51.140;6.296;2023-05-14T17:53:27;100445.97;;;19.85;93.48
18813;BME280;9534;51.140;6.296;2023-05-14T17:57:32;100451.53;;;19.85;96.74
18813;BME280;9534;51.140;6.296;2023-05-14T18:01:35;100445.09;;;19.60;98.38
18813;BME280;9534;51.140;6.296;2023-05-14T18:05:38;100447.25;;;19.48;99.15
18813;BME280;9534;51.140;6.296;2023-05-14T18:09:41;100455.81;;;19.31;100.00
18813;BME280;9534;51.140;6.296;2023-05-14T18:13:46;100450.28;;;19.31;100.00
18813;BME280;9534;51.140;6.296;2023-05-14T18:17:49;100454.69;;;19.27;100.00
18813;BME280;9534;51.140;6.296;2023-05-14T18:21:53;100444.91;;;19.15;100.00
18813;BME280;9534;51.140;6.296;2023-05-14T18:25:57;100457.06;;;19.04;100.00
18813;BME280;9534;51.140;6.296;2023-05-14T18:30:01;100455.53;;;18.86;100.00
18813;BME280;9534;51.140;6.296;2023-05-14T18:34:05;100458.88;;;18.88;100.00
18813;BME280;9534;51.140;6.296;2023-05-14T18:38:08;100452.69;;;18.71;100.00
18813;BME280;9534;51.140;6.296;2023-05-14T18:42:12;100454.84;;;18.60;100.00
18813;BME280;9534;51.140;6.296;2023-05-14T18:46:18;100456.38;;;18.46;100.00
18813;BME280;9534;51.140;6.296;2023-05-14T18:50:22;100451.00;;;18.34;100.00
18813;BME280;9534;51.140;6.296;2023-05-14T18:54:25;100457.81;;;18.22;100.00
18813;BME280;9534;51.140;6.296;2023-05-14T18:58:28;100454.94;;;18.12;100.00
18813;BME280;9534;51.140;6.296;2023-05-14T19:02:33;100459.63;;;18.06;100.00
18813;BME280;9534;51.140;6.296;2023-05-14T19:06:37;100452.38;;;18.00;100.00
18813;BME280;9534;51.140;6.296;2023-05-14T19:10:41;100453.06;;;17.86;100.00
18813;BME280;9534;51.140;6.296;2023-05-14T19:14:44;100455.44;;;17.77;100.00
18813;BME280;9534;51.140;6.296;2023-05-14T19:18:49;100456.44;;;17.66;100.00
18813;BME280;9534;51.140;6.296;2023-05-14T19:22:53;100449.13;;;17.55;100.00
18813;BME280;9534;51.140;6.296;2023-05-14T19:26:57;100464.91;;;17.55;100.00
18813;BME280;9534;51.140;6.296;2023-05-14T19:31:00;100462.59;;;17.47;100.00
18813;BME280;9534;51.140;6.296;2023-05-14T19:35:05;100469.00;;;17.31;100.00
18813;BME280;9534;51.140;6.296;2023-05-14T19:39:08;100468.56;;;17.18;100.00
18813;BME280;9534;51.140;6.296;2023-05-14T19:43:11;100463.19;;;17.11;100.00
18813;BME280;9534;51.140;6.296;2023-05-14T19:47:14;100469.28;;;17.08;100.00
18813;BME280;9534;51.140;6.296;2023-05-14T19:51:19;100474.25;;;17.11;100.00
18813;BME280;9534;51.140;6.296;2023-05-14T19:55:26;100469.97;;;16.99;100.00
18813;BME280;9534;51.140;6.296;2023-05-14T19:59:29;100466.47;;;16.87;100.00
18813;BME280;9534;51.140;6.296;2023-05-14T20:03:32;100462.72;;;16.76;100.00
18813;BME280;9534;51.140;6.296;2023-05-14T20:07:36;100478.06;;;16.67;100.00
18813;BME280;9534;51.140;6.296;2023-05-14T20:11:41;100469.38;;;16.59;100.00
18813;BME280;9534;51.140;6.296;2023-05-14T20:15:44;100462.03;;;16.48;100.00
18813;BME280;9534;51.140;6.296;2023-05-14T20:19:47;100461.19;;;16.47;100.00
18813;BME280;9534;51.140;6.296;2023-05-14T20:23:51;100458.22;;;16.37;100.00
18813;BME280;9534;51.140;6.296;2023-05-14T20:27:55;100453.13;;;16.29;100.00
18813;BME280;9534;51.140;6.296;2023-05-14T20:31:58;100448.69;;;16.28;100.00
18813;BME280;9534;51.140;6.296;2023-05-14T20:36:01;100443.66;;;16.25;100.00
18813;BME280;9534;51.140;6.296;2023-05-14T20:40:07;100447.97;;;16.16;100.00
18813;BME280;9534;51.140;6.296;2023-05-14T20:44:13;100448.88;;;16.06;100.00
18813;BME280;9534;51.140;6.296;2023-05-14T20:48:18;100453.13;;;15.97;100.00
18813;BME280;9534;51.140;6.296;2023-05-14T20:52:22;100451.38;;;15.91;100.00
18813;BME280;9534;51.140;6.296;2023-05-14T20:56:27;100446.25;;;15.83;100.00
18813;BME280;9534;51.140;6.296;2023-05-14T21:00:31;100442.41;;;15.84;100.00
18813;BME280;9534;51.140;6.296;2023-05-14T21:04:34;100445.66;;;15.81;100.00
18813;BME280;9534;51.140;6.296;2023-05-14T21:08:37;100433.03;;;15.68;100.00
18813;BME280;9534;51.140;6.296;2023-05-14T21:12:42;100427.53;;;15.57;100.00
18813;BME280;9534;51.140;6.296;2023-05-14T21:16:45;100427.72;;;15.50;100.00
18813;BME280;9534;51.140;6.296;2023-05-14T21:20:49;100431.44;;;15.44;100.00
18813;BME280;9534;51.140;6.296;2023-05-14T21:24:53;100439.63;;;15.39;100.00